Calhoun City, Mississippi
Current Conditions -  °F | °C
As of 3:15 PM on Saturday 22 Nov 2014 (Local Time) from KGNF Reporting Station
Clear Clear  
Wind Chill: 64°   Ceiling: Unl
Heat Index: 64°   Visibility: 10mi
Dew Point: 46°   Wind: 6mph
Humidity: 52%   Direction: 160°SSE
Pressure: 30.08"   Gusts: NA
Location:  33.86°N, 89.31°W
Report Text: KGNF 222115Z AUTO 16005KT 10SM CLR 18/08 A3008 RMK AO2
Loading
Personal Weather Stations






























Interactive Weather Map New forecast layout! Learn more

10-Day Weather Forecast

Advertisements
Track Severe Weather on mobile